ADDS METAR Data INFO
IDs: Format: Raw Decoded Include TAF

Data at: 0717 UTC 24 Jun 2018

KHEQ 240710Z AUTO 03009KT 10SM SCT100 16/14 A2989 RMK AO2 LTG DSNT SW AND W
KHEQ 240650Z AUTO 04009KT 10SM BKN100 16/14 A2991 RMK AO2 LTG DSNT N AND W
KHEQ 240630Z AUTO 05011KT 10SM VCTS SCT100 16/15 A2991 RMK AO2 LTG DSNT W THRU NE
KHEQ 240610Z AUTO 04010KT 10SM CLR 15/13 A2990 RMK AO2
KHEQ 240550Z AUTO 10006KT 10SM VCTS CLR 15/13 A2988 RMK AO2 LTG DSNT NW
KHEQ 240530Z AUTO 08005KT 10SM TS CLR 15/13 A2990 RMK AO2 LTG DSNT N AND E
KHEQ 240510Z AUTO 06003KT 10SM CLR 15/13 A2990 RMK AO2
KHEQ 240450Z AUTO 05006KT 10SM SCT009 SCT043 16/13 A2989 RMK AO2 LTG DSNT E
KHEQ 240430Z AUTO 04012KT 10SM -RA SCT012 SCT043 SCT065 16/13 A2989 RMK AO2 LTG DSNT NE AND E
KHEQ 240410Z AUTO 04011KT 10SM SCT021 SCT037 BKN043 17/13 A2991 RMK AO2 LTG DSNT NW THRU E
KHEQ 240350Z AUTO 08011G25KT 10SM VCTS SCT028 BKN038 BKN075 18/13 A2990 RMK AO2 LTG DSNT N THRU E
KHEQ 240330Z AUTO 31021G32KT 10SM SCT110 20/13 A2990 RMK AO2 LTG DSNT N AND NW
KHEQ 240310Z AUTO 16015G20KT 10SM CLR 21/14 A2978 RMK AO2 LTG DSNT N
KHEQ 240250Z AUTO 15018G21KT 10SM CLR 22/15 A2980 RMK AO2 LTG DSNT N
KHEQ 240230Z AUTO 14017G24KT 10SM CLR 23/16 A2982 RMK AO2
KHEQ 240210Z AUTO 14018G25KT 10SM CLR 23/15 A2981 RMK AO2 LTG DSNT N
KHEQ 240150Z AUTO 15019G24KT 10SM CLR 26/15 A2979 RMK AO2
KHEQ 240130Z AUTO 14020G26KT 10SM CLR 27/14 A2977 RMK AO2
KHEQ 240110Z AUTO 15008KT 10SM CLR 27/13 A2976 RMK AO2
KHEQ 240055Z AUTO 15010KT 10SM CLR 29/13 A2976 RMK AO2 LTG DSNT N AND S
KHEQ 240035Z AUTO 12010KT 10SM CLR 30/10 A2976 RMK AO2 LTG DSNT N AND S
KHEQ 240015Z AUTO 13010G14KT 10SM CLR 30/10 A2976 RMK AO2 LTG DSNT S
KHEQ 232350Z AUTO 13008KT 10SM CLR 31/09 A2976 RMK AO2 LTG DSNT S
KHEQ 232330Z AUTO 11006KT 10SM CLR 30/08 A2977 RMK AO2 LTG DSNT S
KHEQ 232310Z AUTO 13008KT 10SM CLR 31/08 A2977 RMK AO2 LTG DSNT S
KHEQ 232250Z AUTO 11007KT 10SM CLR 31/08 A2978 RMK AO2 LTG DSNT S
KHEQ 232230Z AUTO 11006KT 10SM CLR 30/10 A2979 RMK AO2
KHEQ 232210Z AUTO 11005KT 10SM CLR 30/09 A2980 RMK AO2
KHEQ 232150Z AUTO 12007KT 10SM CLR 33/10 A2981 RMK AO2 LTG DSNT S
KHEQ 232130Z AUTO 06003KT 10SM CLR 30/09 A2981 RMK AO2 LTG DSNT S
KHEQ 232110Z AUTO 10007KT 10SM CLR 31/10 A2981 RMK AO2 LTG DSNT S
KHEQ 232050Z AUTO 00000KT 10SM CLR 31/08 A2982 RMK AO2
KHEQ 232030Z AUTO 00000KT 10SM CLR 31/08 A2982 RMK AO2
KHEQ 232010Z AUTO 10004KT 10SM CLR 31/09 A2983 RMK AO2
KHEQ 231950Z AUTO 15004KT 10SM CLR 30/10 A2984 RMK AO2
KHEQ 231930Z AUTO 13006KT 10SM CLR 31/09 A2985 RMK AO2
KHEQ 231910Z AUTO 14005G15KT 10SM CLR 30/11 A2985 RMK AO2
KHEQ 231850Z AUTO 17005KT 10SM CLR 29/10 A2986 RMK AO2
KHEQ 231830Z AUTO 17007KT 119V189 10SM CLR 29/11 A2987 RMK AO2
KHEQ 231810Z AUTO 19003KT 10SM CLR 30/07 A2987 RMK AO2
KHEQ 231750Z AUTO 24005G08KT 10SM CLR 30/08 A2988 RMK AO2
KHEQ 231730Z AUTO 20003KT 10SM CLR 29/08 A2988 RMK AO2
KHEQ 231710Z AUTO 29003KT 10SM CLR 29/09 A2989 RMK AO2
KHEQ 231650Z AUTO 00000KT 10SM CLR 28/10 A2989 RMK AO2
KHEQ 231630Z AUTO 00000KT 10SM CLR 27/10 A2990 RMK AO2
KHEQ 231610Z AUTO 00000KT 10SM CLR 27/11 A2990 RMK AO2
KHEQ 231550Z AUTO 30004KT 10SM CLR 26/12 A2990 RMK AO2
KHEQ 231530Z AUTO 31003KT 10SM CLR 26/13 A2991 RMK AO2
KHEQ 231510Z AUTO 28003KT 10SM CLR 24/13 A2991 RMK AO2
KHEQ 231450Z AUTO 29004KT 10SM CLR 23/13 A2991 RMK AO2
KHEQ 231430Z AUTO 27004KT 10SM CLR 22/14 A2990 RMK AO2
KHEQ 231410Z AUTO 28004KT 10SM CLR 20/13 A2991 RMK AO2
KHEQ 231350Z AUTO 29006KT 10SM CLR 18/13 A2991 RMK AO2
KHEQ 231330Z AUTO 27005KT 10SM CLR 17/13 A2991 RMK AO2
KHEQ 231310Z AUTO 28005KT 10SM CLR 16/12 A2991 RMK AO2
KHEQ 231250Z AUTO 28006KT 10SM CLR 15/11 A2991 RMK AO2
KHEQ 231230Z AUTO 26007KT 10SM CLR 15/12 A2991 RMK AO2
KHEQ 231210Z AUTO 27007KT 10SM CLR 15/12 A2991 RMK AO2
KHEQ 231150Z AUTO 23003KT 10SM CLR 13/11 A2992 RMK AO2
KHEQ 231130Z AUTO 28004KT 10SM CLR 12/10 A2991 RMK AO2
KHEQ 231110Z AUTO 26004KT 10SM CLR 12/10 A2991 RMK AO2
KHEQ 231050Z AUTO 28005KT 10SM CLR 12/11 A2990 RMK AO2
KHEQ 231030Z AUTO 27006KT 10SM CLR 12/10 A2990 RMK AO2
KHEQ 231010Z AUTO 26005KT 10SM CLR 12/10 A2991 RMK AO2
KHEQ 230950Z AUTO 26006KT 10SM CLR 13/11 A2991 RMK AO2
KHEQ 230930Z AUTO 26008KT 10SM CLR 13/11 A2991 RMK AO2
KHEQ 230910Z AUTO 26006KT 10SM CLR 13/11 A2991 RMK AO2
KHEQ 230850Z AUTO 27007KT 10SM CLR 13/11 A2991 RMK AO2
KHEQ 230830Z AUTO 26006KT 10SM CLR 13/11 A2992 RMK AO2
KHEQ 230810Z AUTO 26006KT 10SM CLR 15/12 A2992 RMK AO2
KHEQ 230750Z AUTO 27005KT 10SM CLR 15/12 A2992 RMK AO2
KHEQ 230730Z AUTO 27005KT 10SM CLR 15/13 A2992 RMK AO2
KHEQ 230710Z AUTO 25005KT 10SM CLR 15/12 A2992 RMK AO2
KHEQ 230650Z AUTO 25005KT 10SM CLR 15/13 A2994 RMK AO2 LTG DSNT NW
KHEQ 230630Z AUTO 23005KT 10SM CLR 15/13 A2993 RMK AO2
KHEQ 230610Z AUTO 27003KT 10SM CLR 15/12 A2994 RMK AO2
KHEQ 230550Z AUTO 22003KT 10SM CLR 15/12 A2994 RMK AO2
KHEQ 230530Z AUTO 22004KT 10SM CLR 16/13 A2995 RMK AO2
KHEQ 230510Z AUTO 00000KT 10SM CLR 16/13 A2996 RMK AO2
KHEQ 230450Z AUTO 07006KT 10SM CLR 16/13 A2995 RMK AO2 P0003
KHEQ 230430Z AUTO 09008KT 10SM SCT011 SCT017 SCT025 16/13 A2994 RMK AO2 P0003
KHEQ 230410Z AUTO 05005KT 5SM RA SCT011 BKN019 BKN031 17/13 A3000 RMK AO2 P0003
KHEQ 230350Z AUTO 05008KT 10SM -RA SCT012 SCT028 BKN090 18/12 A2999 RMK AO2 P0001
KHEQ 230330Z AUTO 36020G28KT 10SM -TSRA SCT075 SCT090 BKN110 18/13 A2999 RMK AO2
KHEQ 230310Z AUTO 17003KT 10SM CLR 18/12 A2989 RMK AO2
KHEQ 230250Z AUTO 21007KT 10SM CLR 17/12 A2985 RMK AO2
KHEQ 230230Z AUTO 17005KT 10SM VCTS CLR 18/13 A2984 RMK AO2 LTG DSNT N
KHEQ 230210Z AUTO 21005KT 10SM CLR 20/13 A2981 RMK AO2 LTG DSNT N
KHEQ 230150Z AUTO 20005KT 10SM CLR 22/13 A2980 RMK AO2 LTG DSNT N
KHEQ 230130Z AUTO 18003KT 10SM CLR 23/12 A2981 RMK AO2
KHEQ 230110Z AUTO 12004KT 10SM CLR 24/12 A2982 RMK AO2
KHEQ 230055Z AUTO 07006KT 10SM CLR 23/13 A2982 RMK AO2 LTG DSNT N
KHEQ 230035Z AUTO 22003KT 10SM SCT120 23/11 A2985 RMK AO2
KHEQ 230015Z AUTO 00000KT 10SM CLR 23/09 A2985 RMK AO2
KHEQ 222350Z AUTO 35015G21KT 10SM CLR 25/11 A2987 RMK AO2
KHEQ 222330Z AUTO 34011G26KT 10SM CLR 26/09 A2988 RMK AO2
KHEQ 222310Z AUTO 13009KT 10SM CLR 23/10 A2982 RMK AO2
KHEQ 222250Z AUTO 15011G15KT 10SM CLR 23/11 A2983 RMK AO2 LTG DSNT E
KHEQ 222230Z AUTO 14009G16KT 10SM CLR 22/10 A2982 RMK AO2 LTG DSNT E
KHEQ 222210Z AUTO 13010KT 10SM CLR 22/08 A2981 RMK AO2 LTG DSNT E
KHEQ 222150Z AUTO 15012G18KT 10SM SCT100 22/09 A2982 RMK AO2 LTG DSNT SE
KHEQ 222130Z AUTO 14019G28KT 10SM SCT041 SCT090 BKN110 22/08 A2982 RMK AO2 LTG DSNT SE
KHEQ 222110Z AUTO 13017G39KT 10SM -RA SCT031 SCT045 BKN090 23/09 A2985 RMK AO2 LTG DSNT SE AND S
KHEQ 222050Z AUTO 17020G27KT 10SM SCT048 BKN090 20/10 A2988 RMK AO2 LTG DSNT SE
KHEQ 222030Z AUTO 15010G16KT 10SM -RA SCT030 SCT040 OVC090 20/12 A2989 RMK AO2 LTG DSNT SE AND S
KHEQ 222010Z AUTO 16005KT 10SM -VCTSRA BKN090 OVC120 21/15 A2994 RMK AO2 LTG DSNT SE AND S
KHEQ 221950Z AUTO 15008KT 10SM VCTS SCT100 BKN120 22/14 A2994 RMK AO2 LTG DSNT SE THRU SW
KHEQ 221930Z AUTO 14008KT 10SM SCT120 23/15 A2992 RMK AO2 LTG DSNT S AND SW